createdAt,value
2019-02-15T00:01:03.837Z,78.17
2019-02-15T00:03:31.949Z,91.63
2019-02-15T00:06:00.138Z,71.23
2019-02-15T00:08:29.021Z,76.77
2019-02-15T00:11:01.770Z,77.67
2019-02-15T00:13:29.913Z,117.30
2019-02-15T00:15:58.052Z,80.90
2019-02-15T00:18:30.581Z,73.63
2019-02-15T00:21:00.420Z,75.43
2019-02-15T00:23:29.308Z,119.47
2019-02-15T00:25:59.283Z,122.90
2019-02-15T00:28:27.393Z,163.73
2019-02-15T00:30:55.553Z,178.83
2019-02-15T00:33:23.717Z,163.00
2019-02-15T00:35:51.833Z,207.20
2019-02-15T00:38:19.950Z,175.97
2019-02-15T00:40:48.103Z,223.10
2019-02-15T00:43:24.984Z,283.90
2019-02-15T00:46:09.891Z,284.20
2019-02-15T00:48:38.045Z,292.60
2019-02-15T00:51:07.856Z,309.57
2019-02-15T00:53:46.497Z,255.37
2019-02-15T00:56:19.177Z,270.30
2019-02-15T00:58:51.925Z,297.70
2019-02-15T01:01:21.757Z,282.47
2019-02-15T01:03:51.559Z,241.63
2019-02-15T01:06:36.621Z,214.23
2019-02-15T01:09:25.112Z,230.03
2019-02-15T01:11:54.932Z,277.27
2019-02-15T01:14:23.101Z,269.93
2019-02-15T01:16:51.260Z,308.87
2019-02-15T01:19:19.470Z,302.50
2019-02-15T01:21:47.605Z,346.00
2019-02-15T01:24:15.753Z,331.33
2019-02-15T01:26:48.110Z,296.37
2019-02-15T01:29:32.997Z,325.17
2019-02-15T01:32:19.261Z,324.93
2019-02-15T01:34:52.098Z,348.57
2019-02-15T01:37:24.741Z,318.10
2019-02-15T01:40:03.752Z,338.47
2019-02-15T01:42:51.863Z,309.63
2019-02-15T01:45:30.333Z,333.63
2019-02-15T01:47:58.575Z,276.93
2019-02-15T01:50:26.797Z,303.30
2019-02-15T01:52:54.978Z,368.83
2019-02-15T01:55:23.117Z,222.50
2019-02-15T01:57:51.247Z,400.87
2019-02-15T02:00:20.647Z,376.37
2019-02-15T02:02:48.788Z,422.60
2019-02-15T02:05:16.936Z,415.97
2019-02-15T02:07:45.091Z,355.37
2019-02-15T02:10:13.247Z,372.53
2019-02-15T02:12:41.464Z,372.77
2019-02-15T02:15:09.808Z,372.00
2019-02-15T02:17:37.952Z,305.27
2019-02-15T02:20:07.537Z,321.10
2019-02-15T02:22:35.747Z,349.50
2019-02-15T02:25:04.630Z,347.67
2019-02-15T02:27:32.753Z,378.23
2019-02-15T02:30:00.947Z,374.67
2019-02-15T02:32:29.114Z,426.90
2019-02-15T02:34:57.268Z,417.10
2019-02-15T02:37:25.393Z,430.40
2019-02-15T02:39:53.567Z,372.90
2019-02-15T02:42:21.726Z,425.90
2019-02-15T02:44:49.845Z,371.80
2019-02-15T02:47:18.001Z,441.43
2019-02-15T02:49:46.198Z,421.90
2019-02-15T02:52:14.323Z,401.83
2019-02-15T02:54:42.484Z,456.47
2019-02-15T02:57:10.677Z,363.77
2019-02-15T02:59:38.845Z,470.17
2019-02-15T03:02:07.106Z,496.87
2019-02-15T03:04:35.297Z,470.17
2019-02-15T03:07:03.671Z,454.80
2019-02-15T03:09:31.814Z,415.03
2019-02-15T03:12:04.974Z,486.03
2019-02-15T03:14:33.166Z,495.93
2019-02-15T03:17:01.340Z,459.53
2019-02-15T03:19:29.548Z,451.43
2019-02-15T03:21:57.685Z,488.50
2019-02-15T03:24:25.857Z,436.67
2019-02-15T03:26:54.100Z,531.90
2019-02-15T03:29:22.334Z,407.00
2019-02-15T03:31:50.493Z,512.93
2019-02-15T03:34:18.751Z,478.47
2019-02-15T03:37:05.093Z,508.67
2019-02-15T03:42:38.035Z,518.03
2019-02-15T03:45:07.244Z,523.70
2019-02-15T03:47:35.408Z,525.83
2019-02-15T03:50:05.205Z,513.40
2019-02-15T03:52:33.354Z,522.73
2019-02-15T03:55:01.522Z,519.10
2019-02-15T03:57:29.662Z,523.13
2019-02-15T03:59:57.878Z,517.67
2019-02-15T04:02:31.930Z,519.73
2019-02-15T04:05:00.108Z,533.33
2019-02-15T04:07:28.604Z,529.33
2019-02-15T04:10:01.282Z,531.37
2019-02-15T04:12:29.480Z,499.90
2019-02-15T04:14:57.605Z,532.87
2019-02-15T04:17:25.774Z,537.77
2019-02-15T04:19:53.967Z,513.27
2019-02-15T04:22:22.084Z,509.57
2019-02-15T04:24:50.270Z,508.40
2019-02-15T04:27:18.436Z,525.40
2019-02-15T04:29:46.604Z,520.63
2019-02-15T04:32:14.806Z,540.17
2019-02-15T04:34:43.503Z,520.77
2019-02-15T04:37:11.714Z,523.30
2019-02-15T04:39:39.899Z,520.53
2019-02-15T04:42:08.097Z,527.83
2019-02-15T04:44:42.493Z,531.67
2019-02-15T04:47:06.111Z,519.43
2019-02-15T04:49:34.258Z,510.43
2019-02-15T04:52:02.406Z,502.33
2019-02-15T04:54:30.518Z,494.93
2019-02-15T04:56:58.655Z,508.50
2019-02-15T04:59:26.816Z,516.47
2019-02-15T05:01:55.054Z,501.80
2019-02-15T05:04:23.240Z,519.13
2019-02-15T05:06:51.395Z,489.63
2019-02-15T05:09:19.553Z,515.63
2019-02-15T05:11:47.793Z,495.20
2019-02-15T05:14:15.928Z,499.50
2019-02-15T05:16:44.058Z,497.90
2019-02-15T05:19:12.206Z,502.77
2019-02-15T05:21:40.364Z,497.73
2019-02-15T05:24:08.608Z,493.63
2019-02-15T05:26:36.817Z,493.73
2019-02-15T05:29:05.030Z,502.53
2019-02-15T05:31:33.179Z,503.10
2019-02-15T05:34:01.342Z,490.50
2019-02-15T05:36:29.484Z,489.87
2019-02-15T05:38:57.613Z,481.47
2019-02-15T05:41:25.806Z,488.40
2019-02-15T05:43:54.063Z,500.57
2019-02-15T05:46:22.291Z,481.57
2019-02-15T05:48:50.517Z,480.27
2019-02-15T05:51:18.698Z,514.60
2019-02-15T05:53:46.900Z,487.50
2019-02-15T05:56:15.105Z,488.97
2019-02-15T05:58:43.261Z,486.57
2019-02-15T06:01:12.111Z,488.47
2019-02-15T06:03:40.265Z,470.53
2019-02-15T06:06:08.451Z,383.27
2019-02-15T06:08:36.661Z,305.37
2019-02-15T06:11:07.951Z,442.50
2019-02-15T06:13:34.733Z,452.87
2019-02-15T06:16:02.888Z,440.17
2019-02-15T06:18:31.080Z,473.33
2019-02-15T06:20:59.308Z,404.60
2019-02-15T06:23:27.472Z,389.50
2019-02-15T06:25:55.664Z,469.83
2019-02-15T06:28:23.854Z,456.77
2019-02-15T06:30:51.979Z,480.33
2019-02-15T06:33:20.138Z,487.60
2019-02-15T06:35:48.419Z,498.17
2019-02-15T06:38:16.750Z,454.57
2019-02-15T06:40:44.935Z,481.60
2019-02-15T06:43:14.756Z,472.90
2019-02-15T06:45:44.114Z,488.73
2019-02-15T06:48:12.316Z,471.13
2019-02-15T06:50:40.488Z,477.53
2019-02-15T06:53:10.033Z,470.67
2019-02-15T06:55:38.480Z,459.33
2019-02-15T06:58:06.654Z,458.53
2019-02-15T07:00:45.320Z,463.23
2019-02-15T07:03:20.505Z,477.60
2019-02-15T07:05:48.679Z,450.30
2019-02-15T07:08:16.824Z,435.77
2019-02-15T07:10:44.971Z,484.10
2019-02-15T07:13:13.131Z,467.83
2019-02-15T07:15:41.249Z,480.67
2019-02-15T07:18:09.421Z,475.83
2019-02-15T07:20:37.660Z,463.07
2019-02-15T07:23:05.841Z,467.10
2019-02-15T07:25:34.150Z,472.53
2019-02-15T07:28:02.313Z,439.37
2019-02-15T07:30:30.464Z,474.63
2019-02-15T07:32:58.738Z,467.60
2019-02-15T07:35:26.931Z,472.90
2019-02-15T07:37:55.109Z,443.47
2019-02-15T07:40:23.224Z,457.37
2019-02-15T07:42:51.354Z,451.43
2019-02-15T07:45:19.525Z,502.30
2019-02-15T07:47:47.640Z,474.80
2019-02-15T07:50:15.769Z,490.23
2019-02-15T07:52:43.922Z,495.83
2019-02-15T07:55:12.289Z,491.83
2019-02-15T07:57:40.533Z,499.43
2019-02-15T08:00:13.016Z,507.97
2019-02-15T08:02:41.180Z,475.60
2019-02-15T08:05:09.631Z,513.10
2019-02-15T08:07:37.862Z,477.67
2019-02-15T08:10:07.681Z,489.40
2019-02-15T08:12:35.825Z,488.30
2019-02-15T08:15:04.933Z,481.47
2019-02-15T08:17:33.064Z,466.60
2019-02-15T08:20:01.231Z,484.33
2019-02-15T08:22:29.469Z,494.77
2019-02-15T08:24:57.734Z,505.00
2019-02-15T08:27:25.849Z,514.90
2019-02-15T08:29:54.090Z,475.77
2019-02-15T08:32:22.353Z,455.50
2019-02-15T08:34:50.581Z,488.83
2019-02-15T08:37:18.776Z,507.17
2019-02-15T08:39:46.962Z,515.70
2019-02-15T08:42:15.160Z,510.13
2019-02-15T08:44:43.412Z,498.67
2019-02-15T08:47:11.804Z,499.07
2019-02-15T08:49:40.024Z,487.83
2019-02-15T08:52:08.157Z,521.13
2019-02-15T08:54:36.428Z,516.60
2019-02-15T08:57:04.749Z,513.93
2019-02-15T08:59:32.910Z,526.50
2019-02-15T09:02:05.469Z,432.50
2019-02-15T09:04:33.754Z,422.70
2019-02-15T09:07:01.912Z,468.60
2019-02-15T09:09:30.084Z,542.87
2019-02-15T09:11:58.286Z,506.20
2019-02-15T09:14:26.486Z,495.77
2019-02-15T09:16:54.745Z,515.03
2019-02-15T09:19:22.855Z,481.23
2019-02-15T09:21:50.997Z,470.03
2019-02-15T09:24:19.136Z,490.57
2019-02-15T09:26:47.385Z,532.60
2019-02-15T09:29:15.625Z,557.93
2019-02-15T09:31:43.760Z,556.63
2019-02-15T09:34:11.961Z,535.93
2019-02-15T09:39:27.441Z,520.67
2019-02-15T09:41:55.608Z,560.07
2019-02-15T09:44:23.844Z,538.47
2019-02-15T09:46:52.163Z,545.30
2019-02-15T09:49:22.135Z,513.17
2019-02-15T09:51:50.289Z,572.03
2019-02-15T09:54:18.531Z,595.13
2019-02-15T09:56:46.659Z,610.83
2019-02-15T09:59:14.814Z,607.97
2019-02-15T10:01:43.070Z,534.13
2019-02-15T10:04:11.307Z,366.90
2019-02-15T10:06:39.523Z,277.30
2019-02-15T10:09:07.670Z,635.07
2019-02-15T10:11:36.020Z,589.80
2019-02-15T10:14:04.207Z,596.80
2019-02-15T10:16:32.424Z,635.90
2019-02-15T10:19:00.635Z,667.37
2019-02-15T10:21:28.934Z,335.37
2019-02-15T10:23:57.368Z,297.93
2019-02-15T10:26:25.714Z,539.47
2019-02-15T10:28:53.946Z,529.83
2019-02-15T10:31:22.286Z,493.87
2019-02-15T10:33:50.921Z,179.15
2019-02-15T10:36:19.159Z,231.33
2019-02-15T10:38:47.477Z,301.77
2019-02-15T10:41:18.257Z,337.43
2019-02-15T10:43:46.547Z,263.93
2019-02-15T10:46:14.784Z,371.77
2019-02-15T10:48:42.974Z,351.23
2019-02-15T10:51:11.245Z,225.47
2019-02-15T10:53:39.453Z,103.60
2019-02-15T10:56:07.712Z,285.17
2019-02-15T10:58:35.894Z,166.13
2019-02-15T11:01:04.062Z,356.90
2019-02-15T11:03:32.237Z,320.47
2019-02-15T11:06:00.518Z,152.17
2019-02-15T11:08:28.803Z,511.73
2019-02-15T11:10:57.080Z,504.17
2019-02-15T11:13:25.552Z,538.23
2019-02-15T11:15:53.737Z,206.40
2019-02-15T11:18:21.915Z,236.73
2019-02-15T11:20:50.145Z,209.37
2019-02-15T11:23:18.291Z,350.33
2019-02-15T11:25:46.415Z,513.40
2019-02-15T11:28:14.838Z,671.57
2019-02-15T11:30:43.027Z,687.87
2019-02-15T11:33:11.288Z,630.57
2019-02-15T11:35:39.641Z,577.73
2019-02-15T11:38:07.855Z,592.43
2019-02-15T11:40:36.008Z,605.87
2019-02-15T11:43:04.386Z,623.73
2019-02-15T11:45:32.546Z,640.63
2019-02-15T11:48:00.750Z,639.30
2019-02-15T11:50:28.955Z,683.87
2019-02-15T11:52:57.125Z,707.33
2019-02-15T11:55:25.358Z,702.33
2019-02-15T11:57:53.502Z,702.40
2019-02-15T12:00:35.284Z,709.20
2019-02-15T12:03:03.455Z,674.30
2019-02-15T12:05:31.612Z,714.77
2019-02-15T12:07:59.733Z,476.50
2019-02-15T12:10:27.961Z,612.47
2019-02-15T12:12:56.092Z,541.73
2019-02-15T12:15:24.262Z,437.47
2019-02-15T12:17:52.439Z,704.43
2019-02-15T12:20:20.605Z,561.77
2019-02-15T12:22:48.817Z,634.73
2019-02-15T12:25:16.994Z,494.70
2019-02-15T12:27:45.157Z,605.23
2019-02-15T12:30:13.987Z,721.80
2019-02-15T12:32:42.232Z,715.50
2019-02-15T12:35:10.800Z,714.83
2019-02-15T12:37:38.947Z,702.13
2019-02-15T12:40:08.170Z,713.97
2019-02-15T12:42:36.389Z,726.23
2019-02-15T12:45:06.009Z,693.63
2019-02-15T12:47:34.245Z,593.53
2019-02-15T12:50:02.418Z,580.67
2019-02-15T12:52:30.570Z,713.33
2019-02-15T12:54:58.765Z,653.17
2019-02-15T12:57:26.915Z,659.50
2019-02-15T12:59:55.150Z,720.83
2019-02-15T13:02:23.268Z,739.47
2019-02-15T13:04:51.400Z,738.17
2019-02-15T13:07:19.523Z,725.67
2019-02-15T13:09:47.686Z,727.97
2019-02-15T13:12:15.804Z,709.57
2019-02-15T13:14:43.948Z,693.97
2019-02-15T13:17:12.083Z,643.53
2019-02-15T13:19:40.218Z,633.63
2019-02-15T13:22:08.358Z,732.90
2019-02-15T13:24:36.500Z,714.47
2019-02-15T13:27:04.656Z,740.73
2019-02-15T13:29:32.829Z,726.90
2019-02-15T13:32:00.997Z,731.47
2019-02-15T13:34:29.188Z,724.50
2019-02-15T13:36:57.325Z,327.30
2019-02-15T13:39:25.507Z,733.50
2019-02-15T13:41:53.696Z,743.57
2019-02-15T13:44:21.885Z,737.80
2019-02-15T13:46:50.049Z,738.97
2019-02-15T13:49:18.215Z,753.23
2019-02-15T13:51:46.336Z,726.70
2019-02-15T13:54:14.485Z,729.93
2019-02-15T13:56:42.640Z,742.03
2019-02-15T13:59:10.840Z,761.27
2019-02-15T14:01:38.994Z,735.30
2019-02-15T14:04:07.213Z,744.67
2019-02-15T14:06:35.399Z,743.20
2019-02-15T14:09:04.721Z,746.40
2019-02-15T14:11:32.911Z,734.63
2019-02-15T14:14:01.028Z,742.50
2019-02-15T14:16:29.224Z,735.50
2019-02-15T14:18:57.386Z,763.00
2019-02-15T14:21:25.593Z,737.57
2019-02-15T14:23:53.734Z,728.57
2019-02-15T14:26:21.869Z,732.77
2019-02-15T14:28:50.174Z,734.50
2019-02-15T14:31:18.309Z,755.93
2019-02-15T14:33:46.423Z,778.00
2019-02-15T14:36:14.589Z,762.00
2019-02-15T14:38:42.705Z,751.33
2019-02-15T14:41:10.841Z,769.03
2019-02-15T14:43:39.093Z,776.87
2019-02-15T14:46:07.227Z,778.10
2019-02-15T14:48:35.357Z,785.77
2019-02-15T14:51:03.519Z,800.80
2019-02-15T14:53:31.706Z,795.00
2019-02-15T14:55:59.866Z,796.63
2019-02-15T14:58:28.117Z,796.10
2019-02-15T15:00:56.321Z,796.90
2019-02-15T15:03:24.469Z,794.53
2019-02-15T15:05:54.772Z,788.47
2019-02-15T15:08:22.497Z,793.17
2019-02-15T15:10:50.633Z,763.53
2019-02-15T15:13:18.783Z,808.57
2019-02-15T15:15:47.054Z,782.57
2019-02-15T15:18:15.336Z,795.33
2019-02-15T15:20:43.568Z,763.70
2019-02-15T15:23:11.759Z,751.50
2019-02-15T15:25:39.984Z,755.07
2019-02-15T15:28:16.462Z,770.03
2019-02-15T15:30:44.609Z,759.73
2019-02-15T15:33:12.851Z,760.23
2019-02-15T15:35:41.141Z,768.97
2019-02-15T15:38:09.320Z,785.70
2019-02-15T15:40:37.459Z,752.70
2019-02-15T15:43:05.601Z,750.57
2019-02-15T15:45:33.829Z,772.60
2019-02-15T15:48:01.945Z,752.73
2019-02-15T15:50:32.824Z,752.43
2019-02-15T15:53:00.947Z,748.40
2019-02-15T15:55:32.249Z,785.10
2019-02-15T15:58:00.396Z,756.97
2019-02-15T16:00:38.465Z,741.73
2019-02-15T16:02:58.480Z,720.43
2019-02-15T16:05:26.592Z,750.37
2019-02-15T16:07:54.786Z,734.33
2019-02-15T16:10:22.918Z,734.43
2019-02-15T16:12:51.069Z,738.77
2019-02-15T16:15:33.011Z,726.37
2019-02-15T16:18:04.482Z,736.87
2019-02-15T16:20:32.604Z,743.87
2019-02-15T16:23:00.751Z,733.90
2019-02-15T16:25:28.885Z,761.00
2019-02-15T16:27:57.042Z,760.23
2019-02-15T16:30:25.244Z,760.60
2019-02-15T16:32:53.423Z,748.37
2019-02-15T16:35:21.536Z,737.40
2019-02-15T16:37:49.670Z,768.80
2019-02-15T16:40:17.837Z,754.23
2019-02-15T16:42:46.020Z,734.67
2019-02-15T16:45:14.529Z,744.03
2019-02-15T16:47:42.750Z,746.73
2019-02-15T16:50:11.345Z,744.73
2019-02-15T16:52:39.485Z,752.87
2019-02-15T16:55:12.825Z,747.70
2019-02-15T16:57:38.069Z,765.70
2019-02-15T17:00:07.901Z,774.67
2019-02-15T17:02:36.110Z,755.17
2019-02-15T17:05:04.995Z,761.30
2019-02-15T17:10:07.952Z,21.07
2019-02-15T17:12:36.188Z,47.27
2019-02-15T17:15:09.153Z,333.40
2019-02-15T17:17:39.812Z,299.77
2019-02-15T17:20:08.921Z,192.27
2019-02-15T17:22:37.236Z,251.00
2019-02-15T17:25:09.975Z,227.00
2019-02-15T17:27:38.123Z,137.57
2019-02-15T17:30:07.831Z,90.77
2019-02-15T17:32:35.993Z,28.60
2019-02-15T17:35:04.916Z,151.93
2019-02-15T17:37:33.036Z,150.37
2019-02-15T17:40:01.155Z,240.97
2019-02-15T17:42:29.287Z,298.27
2019-02-15T17:44:57.434Z,172.93
2019-02-15T17:47:25.601Z,335.37
2019-02-15T17:49:53.792Z,274.40
2019-02-15T17:52:21.917Z,339.23
2019-02-15T17:54:50.028Z,345.77
2019-02-15T17:57:18.199Z,362.17
2019-02-15T17:59:46.332Z,367.57
2019-02-15T18:02:14.554Z,398.20
2019-02-15T18:04:42.716Z,407.03
2019-02-15T18:07:11.080Z,409.30
2019-02-15T18:09:39.346Z,254.40
2019-02-15T18:12:07.558Z,465.47
2019-02-15T18:14:35.725Z,346.93
2019-02-15T18:17:04.149Z,438.73
2019-02-15T18:19:32.377Z,470.40
2019-02-15T18:22:03.471Z,371.50
2019-02-15T18:24:33.162Z,454.87
2019-02-15T18:27:01.316Z,375.60
2019-02-15T18:29:29.469Z,338.30
2019-02-15T18:31:57.607Z,310.03
2019-02-15T18:34:25.769Z,460.70
2019-02-15T18:36:53.988Z,459.30
2019-02-15T18:39:22.189Z,508.47
2019-02-15T18:41:51.275Z,577.87
2019-02-15T18:44:19.528Z,545.53
2019-02-15T18:46:47.659Z,601.40
2019-02-15T18:49:19.395Z,581.43
2019-02-15T18:51:45.664Z,653.13
2019-02-15T18:54:13.845Z,604.67
2019-02-15T18:56:42.040Z,288.23
2019-02-15T18:59:10.189Z,358.83
2019-02-15T19:01:38.317Z,385.33
2019-02-15T19:04:06.428Z,441.53
2019-02-15T19:06:34.591Z,530.00
2019-02-15T19:09:02.994Z,425.73
2019-02-15T19:11:31.353Z,424.17
2019-02-15T19:13:59.519Z,512.77
2019-02-15T19:16:27.687Z,520.23
2019-02-15T19:18:55.898Z,585.03
2019-02-15T19:21:24.059Z,615.00
2019-02-15T19:23:52.194Z,669.70
2019-02-15T19:26:20.348Z,687.67
2019-02-15T19:28:48.563Z,694.23
2019-02-15T19:31:16.712Z,730.40
2019-02-15T19:33:44.939Z,716.83
2019-02-15T19:36:13.082Z,703.33
2019-02-15T19:38:41.216Z,712.43
2019-02-15T19:41:09.677Z,713.08
2019-02-15T19:43:37.807Z,700.73
2019-02-15T19:46:05.980Z,711.70
2019-02-15T19:48:34.178Z,706.87
2019-02-15T19:51:02.382Z,730.57
2019-02-15T19:53:30.508Z,723.87
2019-02-15T19:59:27.577Z,699.17
2019-02-15T20:01:55.733Z,696.07
2019-02-15T20:04:23.926Z,719.20
2019-02-15T20:08:00.793Z,680.47
